createdAt,value
2022-07-29T00:02:40.027Z,99436.99
2022-07-29T00:07:44.554Z,99443.50
2022-07-29T00:12:48.256Z,99439.48
2022-07-29T00:17:52.207Z,99439.72
2022-07-29T00:22:55.660Z,99440.88
2022-07-29T00:27:59.748Z,99438.81
2022-07-29T00:33:05.895Z,99444.82
2022-07-29T00:38:14.737Z,99442.66
2022-07-29T00:43:19.243Z,99444.77
2022-07-29T00:48:22.898Z,99442.08
2022-07-29T00:53:27.959Z,99435.86
2022-07-29T00:58:34.853Z,99434.63
2022-07-29T01:03:38.550Z,99428.75
2022-07-29T01:08:42.413Z,99422.83
2022-07-29T01:13:48.468Z,99424.52
2022-07-29T01:18:57.770Z,99425.63
2022-07-29T01:24:24.406Z,99417.15
2022-07-29T01:29:39.012Z,99413.42
2022-07-29T01:34:49.871Z,99411.60
2022-07-29T01:39:57.150Z,99412.48
2022-07-29T01:45:04.467Z,99421.84
2022-07-29T01:50:12.866Z,99418.34
2022-07-29T01:55:18.663Z,99419.15
2022-07-29T02:00:23.460Z,99420.98
2022-07-29T02:05:30.968Z,99415.52
2022-07-29T02:10:35.985Z,99410.18
2022-07-29T02:15:42.376Z,99403.74
2022-07-29T02:20:50.082Z,99402.11
2022-07-29T02:25:57.322Z,99403.93
2022-07-29T02:31:03.650Z,99395.91
2022-07-29T02:36:08.816Z,99387.92
2022-07-29T02:41:16.366Z,99381.85
2022-07-29T02:46:29.207Z,99381.35
2022-07-29T02:51:44.957Z,99373.95
2022-07-29T02:56:53.121Z,99366.70
2022-07-29T03:02:00.469Z,99372.55
2022-07-29T03:07:04.791Z,99376.26
2022-07-29T03:12:09.242Z,99374.70
2022-07-29T03:17:13.961Z,99374.67
2022-07-29T03:22:19.193Z,99375.22
2022-07-29T03:27:23.403Z,99376.36
2022-07-29T03:32:27.159Z,99378.63
2022-07-29T03:37:34.273Z,99388.73
2022-07-29T03:42:41.217Z,99385.75
2022-07-29T03:47:50.896Z,99382.05
2022-07-29T03:52:55.969Z,99389.17
2022-07-29T03:58:02.338Z,99392.38
2022-07-29T04:03:10.689Z,99397.63
2022-07-29T04:08:15.411Z,99396.23
2022-07-29T04:13:19.257Z,99394.94
2022-07-29T04:18:23.662Z,99393.01
2022-07-29T04:23:27.570Z,99391.96
2022-07-29T04:28:31.350Z,99391.73
2022-07-29T04:33:34.894Z,99389.25
2022-07-29T04:38:39.171Z,99393.82
2022-07-29T04:43:42.938Z,99388.87
2022-07-29T04:48:48.249Z,99397.83
2022-07-29T04:53:51.826Z,99390.39
2022-07-29T04:58:55.926Z,99378.54
2022-07-29T05:04:00.622Z,99373.98
2022-07-29T05:09:04.731Z,99379.06
2022-07-29T05:14:08.397Z,99374.06
2022-07-29T05:19:14.424Z,99374.92
2022-07-29T05:24:19.127Z,99380.48
2022-07-29T05:29:44.127Z,99383.08
2022-07-29T05:34:50.435Z,99383.52
2022-07-29T05:39:56.660Z,99372.36
2022-07-29T05:45:02.705Z,99370.31
2022-07-29T05:50:08.361Z,99369.64
2022-07-29T05:55:12.911Z,99376.61
2022-07-29T06:00:18.304Z,99385.02
2022-07-29T06:05:22.137Z,99386.30
2022-07-29T06:10:27.405Z,99384.61
2022-07-29T06:15:31.476Z,99384.79
2022-07-29T06:20:35.182Z,99381.15
2022-07-29T06:25:40.516Z,99382.52
2022-07-29T06:30:44.285Z,99380.42
2022-07-29T06:35:53.188Z,99381.27
2022-07-29T06:41:04.310Z,99378.69
2022-07-29T06:46:10.237Z,99380.45
2022-07-29T06:51:14.545Z,99382.62
2022-07-29T06:56:18.053Z,99381.56
2022-07-29T07:01:21.857Z,99378.13
2022-07-29T07:06:25.384Z,99373.30
2022-07-29T07:11:29.810Z,99376.67
2022-07-29T07:16:35.111Z,99372.04
2022-07-29T07:21:39.115Z,99368.20
2022-07-29T07:26:43.000Z,99370.48
2022-07-29T07:31:46.716Z,99366.15
2022-07-29T07:36:50.462Z,99369.59
2022-07-29T07:41:54.437Z,99369.69
2022-07-29T07:46:58.064Z,99374.98
2022-07-29T07:52:07.509Z,99377.08
2022-07-29T07:57:11.845Z,99378.52
2022-07-29T08:02:16.151Z,99374.30
2022-07-29T08:07:20.036Z,99370.74
2022-07-29T08:12:23.829Z,99366.73
2022-07-29T08:17:27.768Z,99368.16
2022-07-29T08:22:32.290Z,99363.90
2022-07-29T08:27:44.226Z,99362.56
2022-07-29T08:32:54.341Z,99359.63
2022-07-29T08:37:59.145Z,99359.56
2022-07-29T08:43:07.567Z,99357.95
2022-07-29T08:48:12.317Z,99361.23
2022-07-29T08:53:18.520Z,99361.77
2022-07-29T08:58:24.925Z,99361.58
2022-07-29T09:03:32.970Z,99358.69
2022-07-29T09:08:36.758Z,99353.83
2022-07-29T09:13:40.490Z,99357.49
2022-07-29T09:18:46.439Z,99351.65
2022-07-29T09:24:07.138Z,99347.57
2022-07-29T09:29:13.401Z,99349.35
2022-07-29T09:34:22.301Z,99344.29
2022-07-29T09:39:33.491Z,99346.71
2022-07-29T09:44:45.683Z,99336.94
2022-07-29T09:49:54.829Z,99328.52
2022-07-29T09:55:07.685Z,99315.13
2022-07-29T10:00:15.286Z,99315.50
2022-07-29T10:05:21.800Z,99312.87
2022-07-29T10:10:28.499Z,99309.29
2022-07-29T10:15:33.562Z,99311.08
2022-07-29T10:20:38.634Z,99306.05
2022-07-29T10:25:46.163Z,99303.30
2022-07-29T10:30:53.458Z,99298.94
2022-07-29T10:36:17.214Z,99291.70
2022-07-29T10:41:44.180Z,99286.85
2022-07-29T10:46:49.178Z,99279.79
2022-07-29T10:52:11.355Z,99283.69
2022-07-29T10:57:53.251Z,99284.94
2022-07-29T11:02:53.979Z,99279.29
2022-07-29T11:08:25.949Z,99272.70
2022-07-29T11:13:52.198Z,99257.83
2022-07-29T11:19:26.287Z,99257.49
2022-07-29T11:24:35.363Z,99258.05
2022-07-29T11:29:43.108Z,99262.23
2022-07-29T11:34:47.702Z,99258.14
2022-07-29T11:40:14.167Z,99253.91
2022-07-29T11:50:58.318Z,99248.32
2022-07-29T11:56:02.705Z,99240.35
2022-07-29T12:01:27.625Z,99236.90
2022-07-29T12:06:31.902Z,99224.11
2022-07-29T12:11:36.533Z,99222.99
2022-07-29T12:16:40.227Z,99208.98
2022-07-29T12:21:52.317Z,99211.41
2022-07-29T12:27:01.050Z,99212.63
2022-07-29T12:32:14.767Z,99209.43
2022-07-29T12:37:30.984Z,99208.54
2022-07-29T12:43:09.695Z,99196.27
2022-07-29T12:48:14.519Z,99195.05
2022-07-29T12:53:18.189Z,99188.42
2022-07-29T12:58:32.843Z,99187.41
2022-07-29T13:03:56.977Z,99182.42
2022-07-29T13:09:07.934Z,99178.89
2022-07-29T13:14:14.143Z,99170.63
2022-07-29T13:19:17.815Z,99169.48
2022-07-29T13:24:21.667Z,99165.54
2022-07-29T13:29:31.378Z,99164.11
2022-07-29T13:34:35.425Z,99155.26
2022-07-29T13:39:39.856Z,99152.48
2022-07-29T13:44:43.548Z,99146.66
2022-07-29T13:49:47.026Z,99137.42
2022-07-29T13:54:51.076Z,99131.15
2022-07-29T13:59:54.763Z,99125.88
2022-07-29T14:04:58.314Z,99117.19
2022-07-29T14:10:01.774Z,99117.36
2022-07-29T14:15:06.684Z,99118.35
2022-07-29T14:20:11.289Z,99109.68
2022-07-29T14:25:15.651Z,99107.64
2022-07-29T14:30:19.844Z,99107.04
2022-07-29T14:35:23.268Z,99106.46
2022-07-29T14:40:26.686Z,99101.80
2022-07-29T14:45:30.351Z,99096.45
2022-07-29T14:50:34.020Z,99083.45
2022-07-29T14:59:34.613Z,99071.97
2022-07-29T15:04:38.149Z,99069.25
2022-07-29T15:09:49.481Z,99069.52
2022-07-29T15:14:54.208Z,99071.61
2022-07-29T15:19:57.855Z,99088.67
2022-07-29T15:25:01.588Z,99109.12
2022-07-29T15:30:08.069Z,99109.11
2022-07-29T15:35:11.804Z,99100.31
2022-07-29T15:40:16.875Z,99098.57
2022-07-29T15:45:20.413Z,99093.91
2022-07-29T15:50:24.177Z,99098.16
2022-07-29T15:55:28.220Z,99100.52
2022-07-29T16:00:32.326Z,99099.30
2022-07-29T16:05:36.157Z,99100.98
2022-07-29T16:10:41.861Z,99109.17
2022-07-29T16:15:45.953Z,99121.77
2022-07-29T16:21:06.152Z,99141.31
2022-07-29T16:26:12.254Z,99153.64
2022-07-29T16:31:17.761Z,99156.92
2022-07-29T16:36:22.133Z,99159.54
2022-07-29T16:41:25.528Z,99186.57
2022-07-29T16:46:29.155Z,99207.48
2022-07-29T16:51:33.548Z,99208.58
2022-07-29T16:56:37.925Z,99209.19
2022-07-29T17:01:41.471Z,99217.24
2022-07-29T17:06:45.676Z,99226.66
2022-07-29T17:11:55.034Z,99225.02
2022-07-29T17:17:02.223Z,99217.76
2022-07-29T17:22:14.292Z,99207.02
2022-07-29T17:27:24.118Z,99209.34
2022-07-29T17:32:28.799Z,99205.52
2022-07-29T17:37:32.690Z,99202.84
2022-07-29T17:42:36.238Z,99192.20
2022-07-29T17:47:41.398Z,99190.33
2022-07-29T17:52:45.586Z,99198.38
2022-07-29T17:57:49.727Z,99193.23
2022-07-29T18:02:53.754Z,99189.55
2022-07-29T18:07:58.384Z,99185.90
2022-07-29T18:13:02.391Z,99190.41
2022-07-29T18:18:06.264Z,99191.44
2022-07-29T18:23:09.822Z,99185.98
2022-07-29T18:28:14.884Z,99184.69
2022-07-29T18:33:21.213Z,99183.28
2022-07-29T18:38:25.756Z,99173.42
2022-07-29T18:43:29.524Z,99161.20
2022-07-29T18:48:34.003Z,99147.81
2022-07-29T18:53:37.791Z,99142.23
2022-07-29T18:58:41.788Z,99143.80
2022-07-29T19:03:45.811Z,99134.33
2022-07-29T19:08:49.823Z,99139.68
2022-07-29T19:13:53.560Z,99150.74
2022-07-29T19:18:57.399Z,99158.82
2022-07-29T19:24:07.426Z,99178.27
2022-07-29T19:29:13.434Z,99219.71
2022-07-29T19:34:18.386Z,99241.61
2022-07-29T19:39:31.953Z,99250.77
2022-07-29T19:44:39.177Z,99249.95
2022-07-29T19:49:43.939Z,99242.88
2022-07-29T19:54:48.068Z,99233.09
2022-07-29T19:59:52.227Z,99214.21
2022-07-29T20:04:57.609Z,99204.48
2022-07-29T20:10:01.305Z,99198.77
2022-07-29T20:15:06.998Z,99194.09
2022-07-29T20:20:13.822Z,99183.23
2022-07-29T20:25:18.581Z,99172.15
2022-07-29T20:30:23.006Z,99167.63
2022-07-29T20:35:27.680Z,99168.52
2022-07-29T20:40:31.286Z,99166.88
2022-07-29T20:45:37.013Z,99160.92
2022-07-29T20:50:44.941Z,99151.94
2022-07-29T20:55:48.401Z,99149.38
2022-07-29T21:00:52.017Z,99147.64
2022-07-29T21:05:56.759Z,99146.59
2022-07-29T21:11:00.474Z,99137.52
2022-07-29T21:16:09.653Z,99132.86
2022-07-29T21:21:15.642Z,99139.03
2022-07-29T21:26:20.164Z,99148.31
2022-07-29T21:31:23.638Z,99147.70
2022-07-29T21:36:47.835Z,99158.46
2022-07-29T21:41:50.797Z,99159.80
2022-07-29T21:46:54.952Z,99158.41
2022-07-29T21:51:58.678Z,99164.52
2022-07-29T21:57:03.886Z,99168.05
2022-07-29T22:02:08.611Z,99178.13
2022-07-29T22:07:12.158Z,99178.03
2022-07-29T22:12:17.161Z,99166.83
2022-07-29T22:17:26.254Z,99172.23
2022-07-29T22:22:29.743Z,99180.16
2022-07-29T22:27:33.501Z,99180.08
2022-07-29T22:32:36.938Z,99174.69
2022-07-29T22:37:40.963Z,99164.04
2022-07-29T22:42:45.139Z,99148.31
2022-07-29T22:47:52.455Z,99146.38
2022-07-29T22:53:03.942Z,99135.49
2022-07-29T22:58:07.451Z,99124.77
2022-07-29T23:03:11.099Z,99110.45
2022-07-29T23:08:15.752Z,99104.23
2022-07-29T23:13:20.927Z,99104.73
2022-07-29T23:18:24.935Z,99111.08
2022-07-29T23:23:32.379Z,99109.48
2022-07-29T23:28:36.086Z,99092.34
2022-07-29T23:33:40.743Z,99081.41
2022-07-29T23:38:46.187Z,99073.38
2022-07-29T23:43:50.618Z,99052.41
2022-07-29T23:48:54.173Z,99037.46
2022-07-29T23:54:00.168Z,99031.76
2022-07-29T23:59:05.778Z,99022.55
